Time;durP1;ratioP1;P1;durP2;ratioP2;P2;SDS_P1;SDS_P2;PMS_P1;PMS_P2;Temp;Humidity;BMP_temperature;BMP_pressure;BME280_temperature;BME280_humidity;BME280_pressure;Samples;Min_cycle;Max_cycle;Signal;HPM_P1;HPM_P2
2022/06/12 00:00:57;;;;;;;;;6.67;5.67;;;;;19.39;57.60;101636.31;6311017;22;47127;-85
2022/06/12 00:03:25;;;;;;;;;6.00;6.00;;;;;19.35;58.26;101639.94;6284063;22;45193;-86
2022/06/12 00:05:53;;;;;;;;;6.00;6.00;;;;;19.32;58.23;101645.34;6284407;22;45338;-85
2022/06/12 00:08:28;;;;;;;;;7.67;6.67;;;;;19.28;59.22;101646.28;6312044;22;45714;-85
2022/06/12 00:10:55;;;;;;;;;4.00;4.00;;;;;19.22;58.40;101642.75;6285440;22;47618;-85
2022/06/12 00:13:26;;;;;;;;;7.67;6.67;;;;;19.18;58.67;101647.25;6284739;22;45390;-85
2022/06/12 00:15:52;;;;;;;;;4.00;4.00;;;;;19.07;58.37;101632.97;6313711;22;45626;-85
2022/06/12 00:18:18;;;;;;;;;5.00;4.00;;;;;19.06;58.72;101640.16;6315396;22;45235;-85
2022/06/12 00:20:44;;;;;;;;;0.67;0.67;;;;;19.04;58.40;101643.75;6285580;22;47879;-85
2022/06/12 00:23:13;;;;;;;;;3.00;2.67;;;;;19.04;58.49;101652.75;6285199;22;45333;-85
2022/06/12 00:25:39;;;;;;;;;3.00;2.00;;;;;18.96;58.26;101636.59;6285140;22;45372;-84
2022/06/12 00:28:05;;;;;;;;;3.33;3.00;;;;;18.95;58.67;101639.34;6286522;22;45374;-84
2022/06/12 00:30:31;;;;;;;;;3.67;3.67;;;;;18.94;58.05;101642.91;6316546;22;45264;-85
2022/06/12 00:32:57;;;;;;;;;6.00;3.33;;;;;18.87;58.53;101636.69;6286947;22;45407;-86
2022/06/12 00:35:26;;;;;;;;;3.00;3.00;;;;;18.80;57.98;101634.91;6288146;22;45271;-85
2022/06/12 00:37:52;;;;;;;;;4.67;2.00;;;;;18.77;58.71;101637.59;6288119;22;45262;-85
2022/06/12 00:40:19;;;;;;;;;3.00;3.00;;;;;18.74;58.32;101643.91;6315401;22;46771;-85
2022/06/12 00:42:55;;;;;;;;;5.00;3.00;;;;;18.73;58.72;101643.91;6315409;22;44767;-85
2022/06/12 00:45:53;;;;;;;;;3.00;1.67;;;;;18.76;58.76;101649.28;6314263;22;45226;-85
2022/06/12 00:48:23;;;;;;;;;2.67;2.00;;;;;18.68;58.69;101646.63;6269593;22;45467;-86
2022/06/12 00:51:16;;;;;;;;;3.00;3.00;;;;;18.67;59.13;101652.03;6314763;22;46808;-85
2022/06/12 00:53:51;;;;;;;;;4.00;2.33;;;;;18.51;59.35;101627.84;6277658;22;45275;-86
2022/06/12 00:56:21;;;;;;;;;3.67;2.00;;;;;18.29;59.14;101605.50;6313771;22;45253;-84
2022/06/12 00:58:56;;;;;;;;;2.33;2.33;;;;;18.49;59.92;101643.13;6314853;22;45750;-86
2022/06/12 01:01:51;;;;;;;;;1.00;1.00;;;;;18.46;59.88;101639.53;6286914;22;48384;-84
2022/06/12 01:07:05;;;;;;;;;2.00;2.00;;;;;18.28;59.98;101618.97;6315566;22;45408;-86
2022/06/12 01:09:36;;;;;;;;;6.33;4.00;;;;;18.13;59.99;101591.19;6286952;22;45333;-85
2022/06/12 01:12:06;;;;;;;;;2.00;2.00;;;;;18.23;60.37;101621.69;6286196;22;47187;-85
2022/06/12 01:14:41;;;;;;;;;7.33;7.00;;;;;18.32;60.07;101648.59;6286610;22;45354;-84
2022/06/12 01:17:08;;;;;;;;;3.67;2.33;;;;;18.37;60.13;101659.34;6288886;22;45393;-86
2022/06/12 01:19:39;;;;;;;;;3.00;3.00;;;;;18.35;60.84;101653.94;6287074;22;44884;-86
2022/06/12 01:22:13;;;;;;;;;3.33;2.67;;;;;18.36;60.23;101655.75;6315476;22;45357;-85
2022/06/12 01:24:42;;;;;;;;;2.00;2.00;;;;;18.38;60.04;101658.44;6313426;22;45488;-86
2022/06/12 01:27:07;;;;;;;;;3.00;3.00;;;;;18.35;60.52;101662.03;6313133;22;45476;-85
2022/06/12 01:29:41;;;;;;;;;2.67;2.33;;;;;18.33;60.26;101658.44;6315951;22;45313;-85
2022/06/12 01:32:17;;;;;;;;;5.33;5.33;;;;;18.30;60.68;101657.53;6316949;22;45520;-85
2022/06/12 01:34:51;;;;;;;;;3.00;3.00;;;;;18.24;60.32;101641.41;6316622;22;45418;-85
2022/06/12 01:37:20;;;;;;;;;3.33;2.33;;;;;18.12;60.30;101627.09;6316627;22;45439;-85
2022/06/12 01:40:02;;;;;;;;;4.00;2.33;;;;;18.15;60.26;101645.94;6287917;22;45345;-85
2022/06/12 01:42:59;;;;;;;;;3.00;3.00;;;;;18.14;60.10;101638.75;6287471;22;46568;-85
2022/06/12 01:45:24;;;;;;;;;2.67;2.67;;;;;18.22;60.35;101653.97;6317079;22;45300;-84
2022/06/12 01:48:09;;;;;;;;;4.33;3.67;;;;;18.23;60.54;101655.78;6316337;22;45371;-85
2022/06/12 01:50:42;;;;;;;;;1.00;1.00;;;;;18.12;60.28;101650.44;6318110;22;44825;-86
2022/06/12 01:53:23;;;;;;;;;3.00;2.33;;;;;18.17;60.25;101662.97;6317045;22;46160;-84
2022/06/12 01:56:00;;;;;;;;;4.67;4.00;;;;;18.16;60.37;101663.88;6315064;22;45207;-84
2022/06/12 01:58:45;;;;;;;;;3.00;3.00;;;;;18.13;60.61;101661.19;6317742;22;45268;-86
2022/06/12 02:01:29;;;;;;;;;3.00;3.00;;;;;18.07;60.81;101674.66;6316941;22;44910;-86
2022/06/12 02:04:26;;;;;;;;;3.00;3.00;;;;;18.03;60.77;101662.09;6288028;22;46972;-86
2022/06/12 02:07:00;;;;;;;;;4.67;3.00;;;;;17.96;60.91;101655.84;6314796;22;45302;-86
2022/06/12 02:09:32;;;;;;;;;3.67;3.67;;;;;18.07;61.81;101668.41;6287265;22;45369;-85
2022/06/12 02:15:13;;;;;;;;;6.00;3.33;;;;;17.89;62.23;101674.69;6315348;22;45156;-85
2022/06/12 02:17:47;;;;;;;;;4.00;4.00;;;;;17.77;62.28;101670.19;6289047;22;45209;-85
2022/06/12 02:20:18;;;;;;;;;3.67;3.67;;;;;17.78;62.72;101678.25;6287783;22;44722;-86
2022/06/12 02:22:49;;;;;;;;;6.00;4.00;;;;;17.68;62.82;101660.34;6314022;22;44751;-86
2022/06/12 02:25:19;;;;;;;;;3.00;3.00;;;;;17.68;62.71;101660.34;6313704;22;45351;-86
2022/06/12 02:27:53;;;;;;;;;5.00;4.00;;;;;17.58;62.94;101648.69;6311326;22;45369;-86
2022/06/12 02:30:23;;;;;;;;;3.00;3.00;;;;;17.67;63.05;101668.41;6313089;22;45224;-86
2022/06/12 02:32:56;;;;;;;;;2.00;2.00;;;;;17.63;64.12;101672.88;6314610;22;45186;-84
2022/06/12 02:35:39;;;;;;;;;5.67;5.00;;;;;17.51;63.67;101665.72;6287151;22;45435;-84
2022/06/12 02:38:20;;;;;;;;;6.00;4.00;;;;;17.55;63.70;101677.38;6314963;22;44840;-85
2022/06/12 02:40:51;;;;;;;;;5.00;3.00;;;;;17.55;63.57;101674.66;6313242;22;45430;-85
2022/06/12 02:43:23;;;;;;;;;8.00;4.00;;;;;17.52;63.71;101658.56;6287005;22;44770;-85
2022/06/12 02:45:57;;;;;;;;;3.67;3.67;;;;;17.48;63.83;101651.38;6314543;22;45550;-85
2022/06/12 02:48:24;;;;;;;;;7.33;5.67;;;;;17.49;63.87;101663.91;6288656;22;45301;-85
2022/06/12 02:51:17;;;;;;;;;2.00;2.00;;;;;17.47;63.85;101663.03;6287909;22;45319;-85
2022/06/12 02:54:01;;;;;;;;;4.67;4.33;;;;;17.40;64.95;101679.16;6313580;22;44748;-85
2022/06/12 02:56:44;;;;;;;;;7.67;4.67;;;;;17.37;64.21;101664.78;6314959;22;46193;-84
2022/06/12 02:59:38;;;;;;;;;3.67;3.67;;;;;17.37;63.95;101672.88;6288749;22;45405;-84
2022/06/12 03:02:16;;;;;;;;;2.67;2.67;;;;;17.22;64.46;101654.94;6315896;22;45334;-84
2022/06/12 03:05:01;;;;;;;;;5.33;3.00;;;;;17.39;64.37;101668.38;6286852;22;45349;-84
2022/06/12 03:07:29;;;;;;;;;3.67;3.00;;;;;17.35;64.32;101667.50;6315038;22;45422;-85
2022/06/12 03:10:03;;;;;;;;;3.33;3.33;;;;;17.21;64.78;101645.09;6287501;22;45326;-85
2022/06/12 03:12:29;;;;;;;;;4.00;4.00;;;;;17.20;64.56;101667.47;6315138;22;45301;-85
2022/06/12 03:14:56;;;;;;;;;4.00;3.67;;;;;17.22;64.81;101684.50;6316723;22;45295;-84
2022/06/12 03:17:22;;;;;;;;;6.67;3.00;;;;;17.11;65.05;101662.09;6317014;22;45089;-84
2022/06/12 03:19:54;;;;;;;;;3.00;3.00;;;;;17.15;65.60;101669.28;6288289;22;45826;-84
2022/06/12 03:22:59;;;;;;;;;3.00;3.00;;;;;17.15;65.25;101667.47;6310938;22;45246;-84
2022/06/12 03:25:35;;;;;;;;;2.33;2.33;;;;;17.14;65.56;101673.72;6287965;22;44974;-85
2022/06/12 03:28:11;;;;;;;;;4.00;2.33;;;;;17.13;65.19;101674.66;6287833;22;47343;-85
2022/06/12 03:31:18;;;;;;;;;3.67;2.00;;;;;17.13;65.54;101673.75;6312853;22;45650;-84
2022/06/12 03:34:22;;;;;;;;;1.00;1.00;;;;;17.10;65.51;101668.38;6162433;23;45328;-84
2022/06/12 03:37:02;;;;;;;;;5.67;5.67;;;;;17.11;65.82;101672.84;6127355;23;45313;-85
2022/06/12 03:39:33;;;;;;;;;5.67;4.00;;;;;17.12;66.19;101675.53;6125958;23;47161;-86
2022/06/12 03:42:15;;;;;;;;;2.67;2.67;;;;;17.06;65.98;101674.63;6126744;23;45444;-86
2022/06/12 03:44:56;;;;;;;;;4.00;4.00;;;;;17.00;66.44;101660.25;6126774;23;45390;-86
2022/06/12 03:47:51;;;;;;;;;4.67;3.00;;;;;16.92;66.48;101651.28;6125897;23;44796;-86
2022/06/12 03:50:26;;;;;;;;;3.33;3.33;;;;;16.85;66.69;101654.88;6100421;23;46684;-86
2022/06/12 03:53:19;;;;;;;;;3.00;2.00;;;;;16.94;67.15;101668.31;6126179;23;45399;-85
2022/06/12 03:59:16;;;;;;;;;2.67;1.67;;;;;16.84;66.05;101652.19;6126018;23;45566;-85
2022/06/12 04:01:45;;;;;;;;;7.00;4.67;;;;;16.84;66.33;101653.06;6125357;23;47424;-86
2022/06/12 04:04:13;;;;;;;;;4.00;3.00;;;;;16.87;66.72;101666.53;6188355;22;45443;-86
2022/06/12 04:06:40;;;;;;;;;1.67;1.67;;;;;16.86;66.52;101651.28;6224389;22;44791;-86
2022/06/12 04:09:23;;;;;;;;;4.00;4.00;;;;;16.93;66.51;101657.59;6250068;22;44746;-84
2022/06/12 04:11:59;;;;;;;;;2.67;2.67;;;;;16.96;66.58;101658.47;6249750;22;46223;-85
2022/06/12 04:14:40;;;;;;;;;3.33;3.33;;;;;16.93;66.94;101663.84;6314863;22;45271;-86
2022/06/12 04:17:06;;;;;;;;;4.00;2.00;;;;;16.91;66.83;101659.38;6288344;22;45402;-85
2022/06/12 04:19:58;;;;;;;;;4.00;2.00;;;;;16.94;66.45;101665.63;6287604;22;44948;-83
2022/06/12 04:22:22;;;;;;;;;3.00;2.67;;;;;16.90;66.52;101650.38;6314876;22;45314;-85
2022/06/12 04:24:54;;;;;;;;;2.00;2.00;;;;;17.03;66.52;101643.28;6317362;22;45328;-85
2022/06/12 04:27:31;;;;;;;;;4.67;3.00;;;;;17.15;66.20;101658.53;6316740;22;45147;-85
2022/06/12 04:30:01;;;;;;;;;3.67;3.67;;;;;17.18;65.81;101655.84;6289389;22;45315;-85
2022/06/12 04:32:28;;;;;;;;;2.33;2.33;;;;;17.24;66.43;101671.06;6313649;22;46731;-85
2022/06/12 04:34:54;;;;;;;;;3.00;3.00;;;;;17.26;66.04;101669.28;6315698;22;45274;-84
2022/06/12 04:37:24;;;;;;;;;4.00;3.67;;;;;17.33;65.88;101672.00;6313653;22;45270;-85
2022/06/12 04:39:51;;;;;;;;;7.00;3.00;;;;;17.37;65.25;101660.34;6288356;22;45794;-85
2022/06/12 04:42:20;;;;;;;;;2.33;2.33;;;;;17.43;65.54;101659.47;6316051;22;45334;-85
2022/06/12 04:44:45;;;;;;;;;4.00;4.00;;;;;17.49;65.36;101674.66;6315563;22;45285;-85
2022/06/12 04:47:14;;;;;;;;;4.00;3.67;;;;;17.54;65.53;101664.81;6290130;22;44734;-84
2022/06/12 04:49:43;;;;;;;;;3.00;3.00;;;;;17.66;65.11;101670.19;6318201;22;45278;-84
2022/06/12 04:52:11;;;;;;;;;2.33;2.00;;;;;17.85;64.85;101662.16;6316309;22;45401;-85
2022/06/12 04:54:38;;;;;;;;;6.33;4.00;;;;;17.95;64.31;101659.44;6311802;22;45150;-85
2022/06/12 04:57:04;;;;;;;;;4.00;2.67;;;;;18.06;63.83;101656.75;6285810;22;44826;-85
2022/06/12 04:59:30;;;;;;;;;6.00;3.33;;;;;18.24;63.60;101662.94;6315762;22;44900;-84
2022/06/12 05:01:56;;;;;;;;;4.00;4.00;;;;;18.32;63.17;101653.97;6290285;22;47041;-84
2022/06/12 05:04:23;;;;;;;;;3.67;3.00;;;;;18.48;62.47;101662.91;6316627;22;45213;-84
2022/06/12 05:06:49;;;;;;;;;5.00;4.67;;;;;18.54;62.15;101662.88;6314912;22;45322;-84
2022/06/12 05:09:16;;;;;;;;;3.67;3.00;;;;;18.54;61.67;101660.19;6319199;22;45307;-84
2022/06/12 05:11:43;;;;;;;;;2.67;2.33;;;;;18.45;62.27;101641.34;6289897;22;45183;-85
2022/06/12 05:14:09;;;;;;;;;2.67;2.67;;;;;18.53;62.17;101646.72;6316778;22;45649;-85
2022/06/12 05:16:48;;;;;;;;;2.33;2.33;;;;;18.66;62.29;101645.72;6290204;22;45401;-84
2022/06/12 05:19:17;;;;;;;;;3.00;2.67;;;;;18.79;61.28;101650.19;6290149;22;45258;-84
2022/06/12 05:21:43;;;;;;;;;7.67;4.00;;;;;18.85;61.23;101654.66;6290228;22;45366;-85
2022/06/12 05:24:10;;;;;;;;;4.00;4.00;;;;;18.87;60.85;101651.97;6314206;22;45724;-85
2022/06/12 05:26:38;;;;;;;;;2.00;1.00;;;;;18.88;61.30;101651.94;6287495;22;45856;-85
2022/06/12 05:29:07;;;;;;;;;6.33;3.67;;;;;18.96;61.15;101652.78;6316567;22;45290;-85
2022/06/12 05:31:33;;;;;;;;;3.00;3.00;;;;;18.90;60.79;101642.03;6288549;22;47418;-84
2022/06/12 05:33:59;;;;;;;;;4.33;2.67;;;;;19.00;61.05;101659.06;6316682;22;45436;-84
2022/06/12 05:36:25;;;;;;;;;5.33;5.33;;;;;19.06;60.91;101636.56;6317634;22;45398;-84
2022/06/12 05:38:51;;;;;;;;;5.67;5.33;;;;;19.22;60.49;101637.34;6318612;22;45274;-84
2022/06/12 05:41:17;;;;;;;;;2.33;2.33;;;;;19.22;59.78;101638.25;6316144;22;46841;-84
2022/06/12 05:43:43;;;;;;;;;5.00;4.33;;;;;19.26;59.89;101640.00;6317147;22;45470;-84
2022/06/12 05:46:11;;;;;;;;;5.67;3.00;;;;;19.41;59.84;101649.81;6315220;22;45321;-85
2022/06/12 05:48:39;;;;;;;;;3.00;3.00;;;;;19.38;59.21;101650.69;6288065;22;45356;-84
2022/06/12 05:51:04;;;;;;;;;5.00;3.00;;;;;19.39;59.19;101654.31;6286834;22;45418;-84
2022/06/12 05:53:32;;;;;;;;;4.33;3.00;;;;;19.49;59.21;101663.19;6288728;22;45418;-84
2022/06/12 05:55:59;;;;;;;;;5.00;4.00;;;;;19.51;58.55;101656.00;6288555;22;45452;-84
2022/06/12 05:58:27;;;;;;;;;3.67;2.00;;;;;19.55;58.31;101668.53;6288682;22;45313;-84
2022/06/12 06:00:54;;;;;;;;;6.67;4.00;;;;;19.56;58.75;101659.56;6288460;22;46723;-84
2022/06/12 06:03:20;;;;;;;;;3.00;3.00;;;;;19.56;58.01;101646.97;6316562;22;44756;-84
2022/06/12 06:05:48;;;;;;;;;6.67;4.00;;;;;19.74;58.24;101672.91;6288750;22;45334;-85
2022/06/12 06:08:15;;;;;;;;;3.67;3.67;;;;;19.84;57.50;101671.03;6288814;22;45254;-85
2022/06/12 06:10:41;;;;;;;;;6.33;5.67;;;;;19.92;57.14;101670.97;6288821;22;47293;-84
2022/06/12 06:13:10;;;;;;;;;3.67;3.67;;;;;20.07;56.19;101668.09;6289003;22;45386;-85
2022/06/12 06:15:37;;;;;;;;;1.00;1.00;;;;;20.24;56.10;101669.72;6288833;22;45373;-85
2022/06/12 06:18:04;;;;;;;;;3.00;3.00;;;;;20.21;54.59;101657.16;6287816;22;45533;-85
2022/06/12 06:20:34;;;;;;;;;3.00;2.33;;;;;20.23;55.00;101654.44;6316229;22;47388;-85
2022/06/12 06:23:00;;;;;;;;;2.33;2.00;;;;;20.29;54.94;101668.75;6317921;22;45352;-85
2022/06/12 06:25:31;;;;;;;;;3.00;3.00;;;;;20.23;54.81;101663.44;6289922;22;45321;-84
2022/06/12 06:27:57;;;;;;;;;4.33;2.00;;;;;20.30;54.59;101675.97;6316427;22;44797;-84
2022/06/12 06:30:25;;;;;;;;;2.33;2.33;;;;;20.46;54.57;101675.78;6315955;22;45471;-85
2022/06/12 06:32:51;;;;;;;;;3.00;2.33;;;;;20.52;53.62;101678.41;6313988;22;45029;-85
2022/06/12 06:35:17;;;;;;;;;4.67;4.67;;;;;20.60;53.43;101686.44;6313847;22;45355;-85
2022/06/12 06:37:44;;;;;;;;;2.00;2.00;;;;;20.53;53.72;101682.91;6313384;22;45492;-85
2022/06/12 06:40:12;;;;;;;;;3.33;3.33;;;;;20.55;53.26;101687.38;6286558;22;46760;-84
2022/06/12 06:42:38;;;;;;;;;2.33;2.33;;;;;20.66;52.70;101680.97;6287989;22;45334;-84
2022/06/12 06:47:49;;;;;;;;;3.67;2.33;;;;;20.79;52.54;101669.09;6317248;22;45546;-84
2022/06/12 06:50:24;;;;;;;;;2.33;2.33;;;;;20.94;52.00;101684.19;6316099;22;46412;-84
2022/06/12 06:52:50;;;;;;;;;5.00;4.00;;;;;20.98;52.51;101681.41;6288431;22;45764;-84
2022/06/12 06:55:17;;;;;;;;;3.33;2.67;;;;;20.97;51.18;101681.47;6287832;22;45461;-86
2022/06/12 06:57:45;;;;;;;;;4.00;4.00;;;;;20.77;51.94;101682.63;6314038;22;45012;-86
2022/06/12 07:00:15;;;;;;;;;6.00;4.00;;;;;20.67;52.72;101693.59;6316631;22;45360;-86
2022/06/12 07:02:42;;;;;;;;;3.67;3.67;;;;;20.63;52.87;101691.84;6315913;22;44895;-85
2022/06/12 07:05:08;;;;;;;;;3.33;3.33;;;;;20.65;52.46;101690.00;6288726;22;45283;-85
2022/06/12 07:07:34;;;;;;;;;4.00;4.00;;;;;20.70;53.36;101675.53;6316406;22;45378;-85
2022/06/12 07:10:01;;;;;;;;;4.67;4.00;;;;;20.85;52.29;101674.41;6287355;22;47917;-85
2022/06/12 07:12:27;;;;;;;;;3.67;3.67;;;;;20.92;52.22;101678.81;6311550;22;45323;-84
2022/06/12 07:14:52;;;;;;;;;3.00;3.00;;;;;21.00;52.75;101694.03;6285084;22;45377;-84
2022/06/12 07:17:18;;;;;;;;;5.00;5.00;;;;;21.06;52.57;101688.53;6286524;22;45517;-84
2022/06/12 07:19:44;;;;;;;;;4.33;4.33;;;;;21.07;52.64;101691.22;6314399;22;46064;-85
2022/06/12 07:22:11;;;;;;;;;4.00;4.00;;;;;21.22;51.99;101698.22;6314227;22;44918;-84
2022/06/12 07:24:43;;;;;;;;;6.67;5.67;;;;;21.35;52.02;101697.13;6313769;22;45348;-84
2022/06/12 07:27:09;;;;;;;;;5.67;3.00;;;;;21.35;51.87;101689.00;6317354;22;44935;-84
2022/06/12 07:29:35;;;;;;;;;9.00;4.00;;;;;21.34;51.13;101683.63;6316508;22;45371;-84
2022/06/12 07:32:00;;;;;;;;;4.33;4.33;;;;;21.37;51.40;101684.47;6287626;22;45364;-85
2022/06/12 07:34:26;;;;;;;;;4.00;4.00;;;;;21.44;51.55;101687.09;6314317;22;45349;-84
2022/06/12 07:36:53;;;;;;;;;5.00;5.00;;;;;21.38;50.73;101688.94;6285978;22;45340;-84
2022/06/12 07:39:23;;;;;;;;;4.67;4.67;;;;;21.29;51.48;101689.09;6285055;22;47120;-84
2022/06/12 07:41:50;;;;;;;;;6.67;4.67;;;;;21.37;51.26;101681.75;6286145;22;45321;-84
2022/06/12 07:44:19;;;;;;;;;4.67;4.67;;;;;21.47;51.46;101692.44;6286876;22;45358;-84
2022/06/12 07:46:45;;;;;;;;;6.00;5.00;;;;;21.46;50.45;101698.81;6314194;22;45528;-84
2022/06/12 07:49:12;;;;;;;;;4.00;4.00;;;;;21.45;51.80;101691.59;6314996;22;44917;-85
2022/06/12 07:51:37;;;;;;;;;6.67;3.00;;;;;21.64;51.15;101693.09;6311805;22;45725;-85
2022/06/12 07:54:03;;;;;;;;;2.33;2.33;;;;;21.77;50.36;101699.19;6315867;22;45326;-85
2022/06/12 07:56:28;;;;;;;;;2.00;2.00;;;;;21.81;50.27;101692.78;6316550;22;45373;-85
2022/06/12 07:58:54;;;;;;;;;3.00;3.00;;;;;21.94;50.28;101679.94;6287996;22;46498;-85
2022/06/12 08:01:25;;;;;;;;;6.00;5.00;;;;;22.06;50.14;101690.53;6312409;22;45361;-85
2022/06/12 08:03:50;;;;;;;;;6.00;6.00;;;;;22.15;49.87;101695.78;6286673;22;44815;-85
2022/06/12 08:06:19;;;;;;;;;4.67;4.00;;;;;22.13;49.63;101694.03;6316141;22;45258;-85
2022/06/12 08:08:46;;;;;;;;;5.00;5.00;;;;;22.01;50.20;101687.00;6315666;22;45964;-85
2022/06/12 08:11:11;;;;;;;;;7.00;5.67;;;;;22.18;50.15;101695.72;6289576;22;45364;-85
2022/06/12 08:13:37;;;;;;;;;5.00;5.00;;;;;22.17;49.44;101684.91;6316400;22;44828;-85
2022/06/12 08:16:07;;;;;;;;;7.00;6.00;;;;;22.17;49.58;101696.63;6316267;22;44808;-85
2022/06/12 08:18:32;;;;;;;;;5.00;5.00;;;;;22.23;49.73;101692.03;6314899;22;46531;-85
2022/06/12 08:21:02;;;;;;;;;8.00;5.00;;;;;22.31;49.42;101663.00;6286703;22;44805;-85
2022/06/12 08:23:43;;;;;;;;;4.00;4.00;;;;;22.40;49.21;101654.69;6285669;22;45509;-85
2022/06/12 08:26:20;;;;;;;;;5.67;4.00;;;;;22.61;47.34;101676.88;6314573;22;45325;-84
2022/06/12 08:28:55;;;;;;;;;3.00;3.00;;;;;22.51;48.32;101660.78;6312841;22;46885;-86
2022/06/12 08:31:27;;;;;;;;;5.67;5.67;;;;;22.44;48.30;101653.72;6288242;22;45416;-84
2022/06/12 08:33:56;;;;;;;;;4.33;4.33;;;;;22.46;45.25;101657.28;6316794;22;45324;-85
2022/06/12 08:36:22;;;;;;;;;7.00;4.00;;;;;22.52;46.89;101672.50;6316821;22;45349;-85
2022/06/12 08:39:25;;;;;;;;;5.33;5.33;;;;;22.63;47.94;101672.31;6315956;22;45319;-85
2022/06/12 08:41:57;;;;;;;;;8.67;6.67;;;;;22.56;47.43;101675.16;6290258;22;45422;-85
2022/06/12 08:45:04;;;;;;;;;9.33;8.33;;;;;22.54;46.62;101660.72;6316192;22;45303;-85
2022/06/12 08:47:32;;;;;;;;;7.67;7.67;;;;;22.47;46.33;101663.59;6315858;22;45356;-86
2022/06/12 08:50:25;;;;;;;;;8.67;7.67;;;;;22.24;46.96;101664.03;6314999;22;47129;-85
2022/06/12 08:53:02;;;;;;;;;8.33;7.33;;;;;22.28;47.58;101660.34;6272353;22;45407;-85
2022/06/12 08:55:34;;;;;;;;;7.33;6.00;;;;;22.41;47.80;101659.19;6315176;22;44753;-85
2022/06/12 08:58:11;;;;;;;;;3.00;3.00;;;;;22.53;47.32;101656.22;6289048;22;45399;-85
2022/06/12 09:00:39;;;;;;;;;3.67;2.67;;;;;22.41;45.52;101645.63;6316726;22;45364;-85
2022/06/12 09:03:08;;;;;;;;;5.00;5.00;;;;;22.36;46.48;101661.13;6317098;22;45243;-85
2022/06/12 09:05:51;;;;;;;;;5.00;5.00;;;;;22.44;46.87;101656.44;6318124;22;45130;-85
2022/06/12 09:08:40;;;;;;;;;3.00;3.00;;;;;22.49;46.92;101657.22;6316710;22;45297;-85
2022/06/12 09:11:20;;;;;;;;;3.67;3.67;;;;;22.53;45.89;101648.09;6314917;22;47910;-85
2022/06/12 09:14:04;;;;;;;;;4.00;4.00;;;;;22.62;47.31;101651.53;6289007;22;45416;-85
2022/06/12 09:16:45;;;;;;;;;3.33;2.00;;;;;22.64;47.16;101647.84;6317958;22;45238;-85
2022/06/12 09:19:20;;;;;;;;;3.00;3.00;;;;;22.69;46.24;101653.19;6289461;22;45535;-84
2022/06/12 09:22:24;;;;;;;;;3.00;3.00;;;;;22.73;46.05;101657.63;6315083;22;47883;-84
2022/06/12 09:25:02;;;;;;;;;6.00;5.33;;;;;22.74;46.91;101656.69;6311582;22;45368;-85
2022/06/12 09:27:54;;;;;;;;;2.33;2.33;;;;;22.71;46.24;101645.91;6314450;22;45346;-84
2022/06/12 09:30:36;;;;;;;;;3.00;3.00;;;;;22.64;45.92;101650.56;6287357;22;45382;-84
2022/06/12 09:33:31;;;;;;;;;2.33;2.33;;;;;22.49;48.11;101643.66;6315221;22;46563;-85
2022/06/12 09:39:40;;;;;;;;;6.00;4.00;;;;;22.75;48.10;101651.22;6316433;22;45275;-86
2022/06/12 09:42:08;;;;;;;;;5.00;5.00;;;;;22.69;49.04;101654.06;6315548;22;45075;-86
2022/06/12 09:44:48;;;;;;;;;5.00;4.00;;;;;22.72;49.15;101653.09;6315669;22;46894;-84
2022/06/12 09:47:41;;;;;;;;;4.67;3.67;;;;;22.76;49.43;101660.25;6289327;22;44851;-84
2022/06/12 09:50:12;;;;;;;;;5.33;4.00;;;;;22.77;49.02;101657.50;6291898;22;45258;-84
2022/06/12 09:53:22;;;;;;;;;4.67;4.33;;;;;22.79;49.22;101656.59;6291754;22;45376;-84
2022/06/12 09:55:56;;;;;;;;;7.00;5.33;;;;;22.80;47.20;101659.25;6310223;22;45731;-84
2022/06/12 09:58:22;;;;;;;;;3.33;3.33;;;;;22.62;47.92;101663.25;6313766;22;45331;-84
2022/06/12 10:00:51;;;;;;;;;5.67;4.00;;;;;22.61;47.62;101660.59;6314557;22;45196;-84
2022/06/12 10:03:33;;;;;;;;;4.00;4.00;;;;;22.63;47.63;101665.06;6316048;22;45373;-86
2022/06/12 10:06:24;;;;;;;;;3.00;3.00;;;;;22.64;46.96;101650.56;6315217;22;45815;-85
2022/06/12 10:09:02;;;;;;;;;2.00;2.00;;;;;22.76;46.58;101660.25;6285458;22;45351;-85
2022/06/12 10:11:48;;;;;;;;;5.00;4.00;;;;;22.68;45.97;101673.06;6314353;22;44854;-86
2022/06/12 10:14:34;;;;;;;;;2.00;2.00;;;;;22.62;46.14;101651.53;6288166;22;44999;-86
2022/06/12 10:17:10;;;;;;;;;4.00;4.00;;;;;22.63;46.37;101626.22;6317815;22;46223;-86
2022/06/12 10:19:44;;;;;;;;;5.00;5.00;;;;;22.88;45.84;101650.94;6317040;22;44716;-85
2022/06/12 10:22:14;;;;;;;;;5.00;5.00;;;;;23.04;45.81;101655.13;6315719;22;45552;-85
2022/06/12 10:25:33;;;;;;;;;4.00;4.00;;;;;23.08;44.65;101654.13;6316126;22;45412;-85
2022/06/12 10:28:03;;;;;;;;;4.00;2.00;;;;;22.99;44.14;101656.16;6287829;22;47242;-85
2022/06/12 10:30:42;;;;;;;;;4.00;4.00;;;;;23.05;41.66;101648.78;6315676;22;45948;-85
2022/06/12 10:33:21;;;;;;;;;3.33;3.33;;;;;23.02;41.90;101653.38;6287073;22;44753;-85
2022/06/12 10:35:52;;;;;;;;;4.67;2.00;;;;;22.88;42.59;101646.41;6317551;22;45203;-84
2022/06/12 10:38:19;;;;;;;;;5.00;5.00;;;;;22.76;43.73;101627.69;6317121;22;45425;-85
2022/06/12 10:40:52;;;;;;;;;4.00;3.33;;;;;22.75;44.74;101629.53;6313944;22;45358;-85
2022/06/12 10:43:37;;;;;;;;;2.67;2.67;;;;;22.81;44.33;101636.63;6317552;22;45369;-84
2022/06/12 10:46:15;;;;;;;;;3.33;3.33;;;;;22.71;43.65;101630.53;6316182;22;45220;-84
2022/06/12 10:48:42;;;;;;;;;5.67;5.00;;;;;22.62;44.34;101618.97;6290079;22;47651;-84
2022/06/12 10:51:35;;;;;;;;;4.67;4.67;;;;;22.63;44.80;101626.22;6291031;22;45154;-84
2022/06/12 10:54:16;;;;;;;;;3.00;3.00;;;;;22.61;42.75;101617.22;6275072;22;44713;-85
2022/06/12 10:57:07;;;;;;;;;5.00;3.00;;;;;22.65;43.75;101608.09;6290381;22;45510;-86
2022/06/12 10:59:35;;;;;;;;;6.67;6.00;;;;;22.74;44.01;101616.00;6289249;22;48544;-84
2022/06/12 11:02:07;;;;;;;;;4.33;4.33;;;;;22.83;42.75;101613.09;6289693;22;45541;-84
2022/06/12 11:04:41;;;;;;;;;5.00;5.00;;;;;22.77;43.31;101611.41;6316226;22;45375;-84
2022/06/12 11:07:24;;;;;;;;;3.00;3.00;;;;;22.73;44.20;101606.97;6315982;22;45372;-85
2022/06/12 11:09:52;;;;;;;;;3.67;3.67;;;;;22.79;43.87;101600.53;6313498;22;47784;-85
2022/06/12 11:12:46;;;;;;;;;4.00;4.00;;;;;22.89;42.93;101603.91;6314590;22;45314;-84
2022/06/12 11:15:17;;;;;;;;;2.00;2.00;;;;;22.95;41.32;101599.22;6315250;22;45311;-84
2022/06/12 11:18:24;;;;;;;;;2.67;2.67;;;;;23.02;41.38;101593.69;6288566;22;44798;-85
2022/06/12 11:20:58;;;;;;;;;5.00;4.00;;;;;23.02;41.12;101585.56;6293029;22;45840;-85
2022/06/12 11:23:27;;;;;;;;;5.00;4.00;;;;;23.00;41.74;101581.94;6286650;22;44796;-85
2022/06/12 11:25:52;;;;;;;;;3.00;3.00;;;;;22.99;38.87;101585.63;6285589;22;45367;-85
2022/06/12 11:28:46;;;;;;;;;4.00;4.00;;;;;22.95;38.87;101577.53;6313023;22;45266;-84
2022/06/12 11:31:21;;;;;;;;;3.00;3.00;;;;;22.95;37.96;101585.66;6285231;22;47199;-85
2022/06/12 11:33:53;;;;;;;;;3.00;2.00;;;;;23.00;37.83;101573.81;6311755;22;45621;-85
2022/06/12 11:36:33;;;;;;;;;4.67;4.67;;;;;23.01;38.98;101567.47;6310741;22;45381;-84
2022/06/12 11:39:13;;;;;;;;;2.00;2.00;;;;;23.01;38.92;101564.75;6311714;22;45591;-84
2022/06/12 11:41:47;;;;;;;;;2.00;2.00;;;;;23.05;39.19;101567.38;6309993;22;46141;-84
2022/06/12 11:44:55;;;;;;;;;2.67;2.67;;;;;23.12;39.50;101554.56;6310980;22;45396;-84
2022/06/12 11:47:35;;;;;;;;;4.00;4.00;;;;;23.08;39.42;101536.56;6271505;22;45346;-84
2022/06/12 11:53:40;;;;;;;;;3.33;3.00;;;;;23.05;34.86;101526.69;6313432;22;45122;-84
2022/06/12 11:56:29;;;;;;;;;2.00;2.00;;;;;23.11;37.12;101547.34;6284899;22;45188;-84
2022/06/12 11:59:15;;;;;;;;;1.67;1.67;;;;;23.14;38.16;101537.28;6313667;22;45356;-84
2022/06/12 12:01:53;;;;;;;;;3.00;3.00;;;;;23.24;37.32;101548.81;6273292;22;45311;-85
2022/06/12 12:04:31;;;;;;;;;3.00;3.00;;;;;23.20;38.30;101541.69;6313228;22;45660;-85
2022/06/12 12:07:12;;;;;;;;;5.00;5.00;;;;;23.22;38.96;101537.09;6309226;22;45407;-85
2022/06/12 12:10:03;;;;;;;;;4.67;4.67;;;;;23.33;40.17;101525.97;6310659;22;45373;-85
2022/06/12 12:12:34;;;;;;;;;5.33;4.00;;;;;23.42;39.62;101522.13;6311964;22;45230;-85
2022/06/12 12:15:05;;;;;;;;;3.00;3.00;;;;;23.46;38.33;101527.41;6314373;22;45099;-85